createdAt,value
2018-12-09T00:00:26.514Z,982.11
2018-12-09T00:01:26.493Z,982.03
2018-12-09T00:02:26.473Z,982.01
2018-12-09T00:03:26.458Z,982.02
2018-12-09T00:04:26.435Z,982.03
2018-12-09T00:05:26.421Z,982.01
2018-12-09T00:06:26.398Z,982.10
2018-12-09T00:07:26.385Z,981.98
2018-12-09T00:08:26.358Z,982.09
2018-12-09T00:09:26.337Z,982.01
2018-12-09T00:10:26.316Z,982.00
2018-12-09T00:11:26.297Z,982.04
2018-12-09T00:12:26.278Z,982.02
2018-12-09T00:13:26.258Z,982.02
2018-12-09T00:14:26.240Z,982.12
2018-12-09T00:15:26.220Z,982.09
2018-12-09T00:16:26.199Z,982.05
2018-12-09T00:17:26.180Z,982.08
2018-12-09T00:18:26.160Z,982.12
2018-12-09T00:19:26.140Z,982.06
2018-12-09T00:20:26.122Z,982.01
2018-12-09T00:21:26.100Z,981.98
2018-12-09T00:22:26.086Z,981.92
2018-12-09T00:23:26.055Z,982.07
2018-12-09T00:24:26.040Z,982.04
2018-12-09T00:25:26.020Z,982.00
2018-12-09T00:26:26.002Z,982.08
2018-12-09T00:27:25.984Z,982.11
2018-12-09T00:28:26.079Z,982.19
2018-12-09T00:29:25.946Z,982.32
2018-12-09T00:30:25.923Z,982.16
2018-12-09T00:31:25.904Z,982.28
2018-12-09T00:32:25.887Z,982.02
2018-12-09T00:33:25.864Z,982.02
2018-12-09T00:34:25.844Z,981.92
2018-12-09T00:35:25.828Z,981.85
2018-12-09T00:36:25.810Z,981.90
2018-12-09T00:37:25.787Z,981.92
2018-12-09T00:38:25.769Z,981.81
2018-12-09T00:39:25.747Z,981.87
2018-12-09T00:40:25.728Z,981.78
2018-12-09T00:41:25.710Z,981.84
2018-12-09T00:42:25.685Z,981.78
2018-12-09T00:43:25.670Z,981.80
2018-12-09T00:44:25.651Z,981.77
2018-12-09T00:45:25.628Z,981.78
2018-12-09T00:46:25.610Z,981.91
2018-12-09T00:47:25.590Z,981.81
2018-12-09T00:48:25.570Z,981.84
2018-12-09T00:49:25.564Z,981.89
2018-12-09T00:50:25.539Z,981.88
2018-12-09T00:51:25.513Z,981.93
2018-12-09T00:52:25.492Z,981.93
2018-12-09T00:53:25.473Z,981.98
2018-12-09T00:54:25.451Z,981.88
2018-12-09T00:55:25.432Z,981.87
2018-12-09T00:56:25.413Z,981.92
2018-12-09T00:57:25.394Z,981.95
2018-12-09T00:58:25.375Z,981.86
2018-12-09T00:59:25.352Z,981.91
2018-12-09T01:00:25.334Z,981.89
2018-12-09T01:01:25.313Z,981.82
2018-12-09T01:02:25.301Z,981.88
2018-12-09T01:03:25.273Z,981.78
2018-12-09T01:04:25.258Z,981.91
2018-12-09T01:05:25.236Z,981.77
2018-12-09T01:06:25.217Z,981.73
2018-12-09T01:07:25.196Z,981.79
2018-12-09T01:08:25.173Z,981.82
2018-12-09T01:09:25.168Z,981.78
2018-12-09T01:10:25.142Z,981.81
2018-12-09T01:11:25.120Z,981.86
2018-12-09T01:12:25.098Z,981.71
2018-12-09T01:13:25.079Z,981.88
2018-12-09T01:14:25.059Z,981.91
2018-12-09T01:15:25.039Z,981.83
2018-12-09T01:16:25.024Z,981.84
2018-12-09T01:17:25.004Z,981.79
2018-12-09T01:18:24.982Z,981.82
2018-12-09T01:19:24.962Z,981.80
2018-12-09T01:20:24.951Z,981.79
2018-12-09T01:21:24.925Z,981.91
2018-12-09T01:22:24.903Z,982.00
2018-12-09T01:23:24.883Z,981.98
2018-12-09T01:24:24.952Z,981.95
2018-12-09T01:25:24.846Z,981.93
2018-12-09T01:26:24.826Z,981.90
2018-12-09T01:27:24.808Z,981.95
2018-12-09T01:28:24.793Z,981.95
2018-12-09T01:29:24.772Z,981.96
2018-12-09T01:30:24.748Z,982.02
2018-12-09T01:31:24.731Z,981.99
2018-12-09T01:32:24.709Z,981.93
2018-12-09T01:33:24.693Z,981.97
2018-12-09T01:34:24.670Z,982.05
2018-12-09T01:35:24.651Z,982.11
2018-12-09T01:36:24.632Z,982.04
2018-12-09T01:37:24.615Z,982.10
2018-12-09T01:38:24.596Z,982.06
2018-12-09T01:39:24.573Z,982.09
2018-12-09T01:40:24.551Z,982.12
2018-12-09T01:41:24.538Z,982.10
2018-12-09T01:42:24.514Z,982.10
2018-12-09T01:43:24.497Z,982.17
2018-12-09T01:44:24.479Z,982.12
2018-12-09T01:45:24.458Z,982.12
2018-12-09T01:46:24.439Z,982.21
2018-12-09T01:47:24.424Z,982.23
2018-12-09T01:48:24.400Z,982.13
2018-12-09T01:49:24.383Z,982.26
2018-12-09T01:50:24.367Z,982.31
2018-12-09T01:51:24.351Z,982.28
2018-12-09T01:52:24.328Z,982.20
2018-12-09T01:53:24.309Z,982.25
2018-12-09T01:54:24.287Z,982.21
2018-12-09T01:55:24.267Z,982.17
2018-12-09T01:56:24.249Z,982.21
2018-12-09T01:57:24.228Z,982.15
2018-12-09T01:58:24.208Z,982.01
2018-12-09T01:59:24.190Z,982.31
2018-12-09T02:00:24.170Z,982.16
2018-12-09T02:01:24.156Z,982.14
2018-12-09T02:02:24.132Z,982.23
2018-12-09T02:03:24.114Z,982.15
2018-12-09T02:04:24.094Z,982.32
2018-12-09T02:05:24.076Z,982.23
2018-12-09T02:06:24.066Z,982.08
2018-12-09T02:07:24.052Z,982.16
2018-12-09T02:08:24.056Z,982.32
2018-12-09T02:09:23.998Z,982.20
2018-12-09T02:10:23.979Z,982.21
2018-12-09T02:11:23.978Z,982.27
2018-12-09T02:12:23.949Z,982.36
2018-12-09T02:13:23.980Z,982.38
2018-12-09T02:14:23.906Z,982.40
2018-12-09T02:15:23.886Z,982.38
2018-12-09T02:16:23.871Z,982.44
2018-12-09T02:17:23.849Z,982.41
2018-12-09T02:18:23.831Z,982.44
2018-12-09T02:19:23.811Z,982.42
2018-12-09T02:20:23.793Z,982.48
2018-12-09T02:21:23.771Z,982.49
2018-12-09T02:22:23.752Z,982.54
2018-12-09T02:23:23.734Z,982.34
2018-12-09T02:24:23.718Z,982.47
2018-12-09T02:25:23.690Z,982.55
2018-12-09T02:26:23.676Z,982.57
2018-12-09T02:27:23.658Z,982.52
2018-12-09T02:28:23.634Z,982.56
2018-12-09T02:29:23.619Z,982.54
2018-12-09T02:30:23.603Z,982.55
2018-12-09T02:31:23.581Z,982.53
2018-12-09T02:32:23.562Z,982.59
2018-12-09T02:33:23.541Z,982.49
2018-12-09T02:34:23.522Z,982.53
2018-12-09T02:35:23.506Z,982.57
2018-12-09T02:36:23.487Z,982.64
2018-12-09T02:37:23.466Z,982.61
2018-12-09T02:38:23.446Z,982.63
2018-12-09T02:39:23.428Z,982.61
2018-12-09T02:40:23.410Z,982.56
2018-12-09T02:41:23.391Z,982.66
2018-12-09T02:42:23.372Z,982.53
2018-12-09T02:43:23.352Z,982.64
2018-12-09T02:44:23.335Z,982.63
2018-12-09T02:45:23.317Z,982.67
2018-12-09T02:46:23.296Z,982.68
2018-12-09T02:47:23.279Z,982.67
2018-12-09T02:48:23.263Z,982.63
2018-12-09T02:49:23.243Z,982.64
2018-12-09T02:50:23.224Z,982.59
2018-12-09T02:51:23.200Z,982.63
2018-12-09T02:52:23.183Z,982.60
2018-12-09T02:53:23.167Z,982.59
2018-12-09T02:54:23.147Z,982.66
2018-12-09T02:55:23.129Z,982.60
2018-12-09T02:56:23.110Z,982.51
2018-12-09T02:57:23.089Z,982.55
2018-12-09T02:58:23.071Z,982.68
2018-12-09T02:59:23.053Z,982.59
2018-12-09T03:00:23.031Z,982.60
2018-12-09T03:01:23.015Z,982.61
2018-12-09T03:02:22.993Z,982.58
2018-12-09T03:03:22.972Z,982.58
2018-12-09T03:04:22.959Z,982.63
2018-12-09T03:05:22.937Z,982.66
2018-12-09T03:06:22.918Z,982.73
2018-12-09T03:07:22.899Z,982.60
2018-12-09T03:08:22.882Z,982.58
2018-12-09T03:09:22.863Z,982.69
2018-12-09T03:10:22.844Z,982.64
2018-12-09T03:11:22.825Z,982.63
2018-12-09T03:12:22.809Z,982.62
2018-12-09T03:13:22.787Z,982.65
2018-12-09T03:14:22.778Z,982.55
2018-12-09T03:15:22.748Z,982.64
2018-12-09T03:16:22.743Z,982.62
2018-12-09T03:17:22.712Z,982.58
2018-12-09T03:18:22.690Z,982.50
2018-12-09T03:19:22.672Z,982.60
2018-12-09T03:20:22.656Z,982.65
2018-12-09T03:21:22.637Z,982.62
2018-12-09T03:22:22.616Z,982.72
2018-12-09T03:23:22.597Z,982.78
2018-12-09T03:24:22.580Z,982.69
2018-12-09T03:25:22.562Z,982.58
2018-12-09T03:26:22.545Z,982.70
2018-12-09T03:27:22.523Z,982.79
2018-12-09T03:28:22.506Z,982.75
2018-12-09T03:29:22.488Z,982.65
2018-12-09T03:30:22.468Z,982.68
2018-12-09T03:31:22.454Z,982.66
2018-12-09T03:32:22.433Z,982.73
2018-12-09T03:33:22.411Z,982.70
2018-12-09T03:34:22.396Z,982.68
2018-12-09T03:35:22.376Z,982.74
2018-12-09T03:36:22.356Z,982.75
2018-12-09T03:37:22.347Z,982.67
2018-12-09T03:38:22.319Z,982.72
2018-12-09T03:39:22.298Z,982.78
2018-12-09T03:40:22.280Z,982.76
2018-12-09T03:41:22.261Z,982.85
2018-12-09T03:42:22.245Z,982.85
2018-12-09T03:43:22.225Z,982.71
2018-12-09T03:44:22.206Z,982.84
2018-12-09T03:45:22.185Z,982.81
2018-12-09T03:46:22.166Z,982.88
2018-12-09T03:47:22.148Z,982.90
2018-12-09T03:48:22.131Z,982.92
2018-12-09T03:49:22.110Z,982.93
2018-12-09T03:50:22.096Z,982.93
2018-12-09T03:51:22.078Z,982.95
2018-12-09T03:52:22.057Z,982.94
2018-12-09T03:53:22.034Z,983.01
2018-12-09T03:54:22.016Z,983.01
2018-12-09T03:55:22.000Z,983.01
2018-12-09T03:56:21.979Z,982.96
2018-12-09T03:57:21.960Z,982.93
2018-12-09T03:58:21.943Z,982.97
2018-12-09T03:59:21.921Z,982.90
2018-12-09T04:00:21.902Z,982.93
2018-12-09T04:01:21.881Z,982.98
2018-12-09T04:02:21.867Z,982.92
2018-12-09T04:03:21.846Z,982.93
2018-12-09T04:04:21.832Z,982.85
2018-12-09T04:05:21.806Z,982.92
2018-12-09T04:06:21.790Z,982.87
2018-12-09T04:07:21.773Z,982.85
2018-12-09T04:08:21.748Z,982.94
2018-12-09T04:09:21.732Z,982.88
2018-12-09T04:10:21.711Z,982.92
2018-12-09T04:11:21.694Z,982.99
2018-12-09T04:12:21.675Z,982.97
2018-12-09T04:13:21.661Z,982.98
2018-12-09T04:14:21.638Z,982.99
2018-12-09T04:15:21.617Z,982.98
2018-12-09T04:16:21.596Z,982.98
2018-12-09T04:17:21.576Z,983.07
2018-12-09T04:18:21.560Z,982.95
2018-12-09T04:19:21.542Z,982.96
2018-12-09T04:20:21.526Z,983.01
2018-12-09T04:21:21.499Z,983.02
2018-12-09T04:22:21.485Z,982.97
2018-12-09T04:23:21.468Z,982.97
2018-12-09T04:24:21.442Z,982.77
2018-12-09T04:25:21.424Z,982.86
2018-12-09T04:26:21.408Z,982.99
2018-12-09T04:27:21.386Z,982.88
2018-12-09T04:28:21.368Z,982.97
2018-12-09T04:29:21.346Z,982.94
2018-12-09T04:30:21.331Z,983.03
2018-12-09T04:31:21.311Z,982.99
2018-12-09T04:32:21.288Z,983.04
2018-12-09T04:33:21.273Z,983.03
2018-12-09T04:34:21.256Z,983.06
2018-12-09T04:35:21.241Z,983.06
2018-12-09T04:36:21.214Z,982.99
2018-12-09T04:37:21.191Z,983.05
2018-12-09T04:38:21.171Z,983.05
2018-12-09T04:39:21.155Z,983.16
2018-12-09T04:40:21.134Z,982.94
2018-12-09T04:41:21.117Z,983.07
2018-12-09T04:42:21.095Z,983.07
2018-12-09T04:43:21.079Z,983.03
2018-12-09T04:44:21.056Z,983.06
2018-12-09T04:45:21.161Z,982.98
2018-12-09T04:46:21.017Z,983.14
2018-12-09T04:47:20.997Z,983.17
2018-12-09T04:48:20.983Z,983.23
2018-12-09T04:49:20.961Z,983.21
2018-12-09T04:50:20.942Z,983.21
2018-12-09T04:51:20.922Z,983.21
2018-12-09T04:52:20.906Z,983.26
2018-12-09T04:53:20.882Z,983.19
2018-12-09T04:54:20.864Z,983.18
2018-12-09T04:55:20.842Z,983.17
2018-12-09T04:56:20.824Z,983.18
2018-12-09T04:57:20.806Z,983.14
2018-12-09T04:58:20.785Z,983.14
2018-12-09T04:59:20.767Z,983.20
2018-12-09T05:00:20.747Z,983.29
2018-12-09T05:01:20.728Z,983.25
2018-12-09T05:02:20.708Z,983.22
2018-12-09T05:03:20.691Z,983.20
2018-12-09T05:04:20.673Z,983.21
2018-12-09T05:05:20.648Z,983.25
2018-12-09T05:06:20.631Z,983.31
2018-12-09T05:07:20.612Z,983.31
2018-12-09T05:08:20.591Z,983.34
2018-12-09T05:09:20.578Z,983.31
2018-12-09T05:10:20.556Z,983.30
2018-12-09T05:11:20.536Z,983.33
2018-12-09T05:12:20.517Z,983.32
2018-12-09T05:13:20.499Z,983.26
2018-12-09T05:14:20.479Z,983.27
2018-12-09T05:15:20.462Z,983.35
2018-12-09T05:16:20.442Z,983.32
2018-12-09T05:17:20.424Z,983.37
2018-12-09T05:18:20.404Z,983.35
2018-12-09T05:19:20.383Z,983.45
2018-12-09T05:20:20.369Z,983.44
2018-12-09T05:21:20.344Z,983.37
2018-12-09T05:22:20.327Z,983.42
2018-12-09T05:23:20.309Z,983.39
2018-12-09T05:24:20.287Z,983.44
2018-12-09T05:25:20.268Z,983.37
2018-12-09T05:26:20.338Z,983.45
2018-12-09T05:27:20.230Z,983.45
2018-12-09T05:28:20.214Z,983.42
2018-12-09T05:29:20.193Z,983.46
2018-12-09T05:30:20.174Z,983.51
2018-12-09T05:31:20.158Z,983.55
2018-12-09T05:32:20.133Z,983.44
2018-12-09T05:33:20.122Z,983.55
2018-12-09T05:34:20.098Z,983.52
2018-12-09T05:35:20.076Z,983.56
2018-12-09T05:36:20.059Z,983.49
2018-12-09T05:37:20.037Z,983.57
2018-12-09T05:38:20.018Z,983.53
2018-12-09T05:39:20.000Z,983.46
2018-12-09T05:40:19.982Z,983.53
2018-12-09T05:41:19.961Z,983.55
2018-12-09T05:42:19.942Z,983.51
2018-12-09T05:43:19.922Z,983.56
2018-12-09T05:44:19.903Z,983.61
2018-12-09T05:45:19.884Z,983.59
2018-12-09T05:46:19.865Z,983.56
2018-12-09T05:47:19.848Z,983.69
2018-12-09T05:48:19.828Z,983.68
2018-12-09T05:49:19.808Z,983.64
2018-12-09T05:50:19.790Z,983.65
2018-12-09T05:51:19.771Z,983.64
2018-12-09T05:52:19.751Z,983.69
2018-12-09T05:53:19.731Z,983.77
2018-12-09T05:54:19.715Z,983.74
2018-12-09T05:55:19.691Z,983.74
2018-12-09T05:56:19.674Z,983.70
2018-12-09T05:57:19.656Z,983.68
2018-12-09T05:58:19.636Z,983.66
2018-12-09T05:59:19.616Z,983.67
2018-12-09T06:00:19.600Z,983.68
2018-12-09T06:01:19.582Z,983.67
2018-12-09T06:02:19.562Z,983.82
2018-12-09T06:03:19.544Z,983.85
2018-12-09T06:04:19.524Z,983.78
2018-12-09T06:05:19.506Z,983.80
2018-12-09T06:06:19.483Z,983.76
2018-12-09T06:07:19.465Z,983.81
2018-12-09T06:08:19.445Z,983.77
2018-12-09T06:09:19.430Z,983.84
2018-12-09T06:10:19.407Z,983.88
2018-12-09T06:11:19.389Z,983.86
2018-12-09T06:12:19.370Z,983.76
2018-12-09T06:13:19.352Z,983.82
2018-12-09T06:14:19.334Z,983.86
2018-12-09T06:15:19.309Z,983.88
2018-12-09T06:16:19.295Z,983.84
2018-12-09T06:17:19.275Z,983.94
2018-12-09T06:18:19.258Z,983.87
2018-12-09T06:19:19.235Z,983.91
2018-12-09T06:20:19.220Z,983.91
2018-12-09T06:21:19.203Z,983.80
2018-12-09T06:22:19.178Z,983.95
2018-12-09T06:23:19.161Z,984.01
2018-12-09T06:24:19.140Z,983.97
2018-12-09T06:25:19.124Z,983.89
2018-12-09T06:26:19.102Z,983.87
2018-12-09T06:27:19.087Z,983.95
2018-12-09T06:28:19.064Z,983.88
2018-12-09T06:29:19.046Z,984.03
2018-12-09T06:30:19.030Z,983.96
2018-12-09T06:31:19.012Z,984.01
2018-12-09T06:32:18.994Z,984.08
2018-12-09T06:33:18.973Z,983.93
2018-12-09T06:34:18.951Z,984.02
2018-12-09T06:35:18.932Z,983.99
2018-12-09T06:36:18.913Z,983.97
2018-12-09T06:37:18.897Z,983.91
2018-12-09T06:38:18.877Z,983.93
2018-12-09T06:39:18.853Z,983.95
2018-12-09T06:40:18.839Z,984.03
2018-12-09T06:41:18.820Z,984.09
2018-12-09T06:42:18.800Z,984.01
2018-12-09T06:43:18.782Z,983.97
2018-12-09T06:44:18.761Z,984.00
2018-12-09T06:45:18.745Z,983.96
2018-12-09T06:46:18.725Z,984.02
2018-12-09T06:47:18.704Z,984.05
2018-12-09T06:48:18.685Z,984.14
2018-12-09T06:49:18.667Z,983.96
2018-12-09T06:50:18.661Z,984.07
2018-12-09T06:51:18.631Z,984.21
2018-12-09T06:52:18.609Z,984.15
2018-12-09T06:53:18.589Z,984.07
2018-12-09T06:54:18.570Z,984.08
2018-12-09T06:55:18.550Z,984.05
2018-12-09T06:56:18.533Z,984.14
2018-12-09T06:57:18.513Z,984.12
2018-12-09T06:58:18.494Z,984.15
2018-12-09T06:59:18.476Z,984.21
2018-12-09T07:00:18.455Z,984.22
2018-12-09T07:01:18.436Z,984.21
2018-12-09T07:02:18.421Z,984.25
2018-12-09T07:03:18.402Z,984.22
2018-12-09T07:04:18.379Z,984.13
2018-12-09T07:05:18.360Z,984.28
2018-12-09T07:06:18.344Z,984.13
2018-12-09T07:07:18.322Z,984.38
2018-12-09T07:08:18.310Z,984.12
2018-12-09T07:09:18.283Z,984.20
2018-12-09T07:10:18.266Z,984.19
2018-12-09T07:11:18.247Z,984.35
2018-12-09T07:12:18.227Z,984.30
2018-12-09T07:13:18.213Z,984.34
2018-12-09T07:14:18.190Z,984.29
2018-12-09T07:15:18.169Z,984.39
2018-12-09T07:16:18.150Z,984.44
2018-12-09T07:17:18.132Z,984.38
2018-12-09T07:18:18.113Z,984.44
2018-12-09T07:19:18.093Z,984.51
2018-12-09T07:20:18.073Z,984.45
2018-12-09T07:21:18.061Z,984.47
2018-12-09T07:22:18.034Z,984.47
2018-12-09T07:23:18.020Z,984.46
2018-12-09T07:24:17.998Z,984.46
2018-12-09T07:25:17.978Z,984.53
2018-12-09T07:26:17.958Z,984.52
2018-12-09T07:27:17.940Z,984.53
2018-12-09T07:28:17.921Z,984.61
2018-12-09T07:29:17.905Z,984.61
2018-12-09T07:30:17.888Z,984.62
2018-12-09T07:31:17.864Z,984.64
2018-12-09T07:32:17.845Z,984.63
2018-12-09T07:33:17.825Z,984.73
2018-12-09T07:34:17.807Z,984.66
2018-12-09T07:35:17.787Z,984.67
2018-12-09T07:36:17.768Z,984.68
2018-12-09T07:37:17.751Z,984.66
2018-12-09T07:38:17.732Z,984.67
2018-12-09T07:39:17.712Z,984.82
2018-12-09T07:40:17.692Z,984.70
2018-12-09T07:41:17.674Z,984.80
2018-12-09T07:42:17.654Z,984.82
2018-12-09T07:43:17.762Z,984.92
2018-12-09T07:44:17.613Z,984.82
2018-12-09T07:45:17.597Z,984.96
2018-12-09T07:46:17.578Z,985.06
2018-12-09T07:47:17.564Z,984.99
2018-12-09T07:48:17.538Z,985.00
2018-12-09T07:49:17.526Z,985.05
2018-12-09T07:50:17.503Z,985.11
2018-12-09T07:51:17.486Z,985.12
2018-12-09T07:52:17.461Z,985.21
2018-12-09T07:53:17.445Z,985.19
2018-12-09T07:54:17.423Z,985.31
2018-12-09T07:55:17.412Z,985.32
2018-12-09T07:56:17.388Z,985.27
2018-12-09T07:57:17.369Z,985.46
2018-12-09T07:58:17.352Z,985.40
2018-12-09T07:59:17.329Z,985.44
2018-12-09T08:00:17.312Z,985.39
2018-12-09T08:01:17.293Z,985.45
2018-12-09T08:02:17.275Z,985.53
2018-12-09T08:03:17.255Z,985.60
2018-12-09T08:04:17.240Z,985.65
2018-12-09T08:05:17.217Z,985.66
2018-12-09T08:06:17.197Z,985.70
2018-12-09T08:07:17.175Z,985.76
2018-12-09T08:08:17.160Z,985.80
2018-12-09T08:09:17.139Z,985.89
2018-12-09T08:10:17.123Z,985.83
2018-12-09T08:11:17.104Z,985.87
2018-12-09T08:12:17.083Z,985.93
2018-12-09T08:13:17.065Z,985.96
2018-12-09T08:14:17.042Z,986.08
2018-12-09T08:15:17.026Z,986.22
2018-12-09T08:16:17.003Z,986.05
2018-12-09T08:17:16.986Z,986.10
2018-12-09T08:18:16.968Z,986.14
2018-12-09T08:19:16.950Z,986.08
2018-12-09T08:20:16.929Z,986.01
2018-12-09T08:21:16.905Z,985.99
2018-12-09T08:22:16.890Z,986.06
2018-12-09T08:23:16.868Z,986.07
2018-12-09T08:24:16.848Z,986.15
2018-12-09T08:25:16.829Z,986.13
2018-12-09T08:26:16.810Z,986.19
2018-12-09T08:27:16.793Z,986.17
2018-12-09T08:28:16.769Z,986.14
2018-12-09T08:29:16.807Z,986.09
2018-12-09T08:30:16.731Z,985.92
2018-12-09T08:31:16.714Z,985.98
2018-12-09T08:32:16.691Z,986.03
2018-12-09T08:33:16.671Z,986.19
2018-12-09T08:34:16.654Z,986.16
2018-12-09T08:35:16.631Z,986.17
2018-12-09T08:36:16.611Z,986.15
2018-12-09T08:37:16.593Z,986.14
2018-12-09T08:38:16.574Z,986.18
2018-12-09T08:39:16.553Z,986.20
2018-12-09T08:40:16.537Z,986.24
2018-12-09T08:41:16.512Z,986.26
2018-12-09T08:42:16.494Z,986.24
2018-12-09T08:43:16.474Z,986.22
2018-12-09T08:44:16.456Z,986.24
2018-12-09T08:45:16.436Z,986.20
2018-12-09T08:46:16.414Z,986.22
2018-12-09T08:47:16.395Z,986.26
2018-12-09T08:48:16.379Z,986.21
2018-12-09T08:49:16.373Z,986.27
2018-12-09T08:50:16.337Z,986.27
2018-12-09T08:51:16.318Z,986.26
2018-12-09T08:52:16.298Z,986.33
2018-12-09T08:53:16.277Z,986.34
2018-12-09T08:54:16.259Z,986.31
2018-12-09T08:55:16.238Z,986.34
2018-12-09T08:56:16.221Z,986.36
2018-12-09T08:57:16.198Z,986.38
2018-12-09T08:58:16.179Z,986.39
2018-12-09T08:59:16.158Z,986.44
2018-12-09T09:00:16.144Z,986.43
2018-12-09T09:01:16.119Z,986.46
2018-12-09T09:02:16.103Z,986.49
2018-12-09T09:03:16.081Z,986.52
2018-12-09T09:04:16.058Z,986.53
2018-12-09T09:05:16.040Z,986.53
2018-12-09T09:06:16.021Z,986.58
2018-12-09T09:07:16.002Z,986.60
2018-12-09T09:08:15.982Z,986.61
2018-12-09T09:09:15.962Z,986.65
2018-12-09T09:10:15.946Z,986.71
2018-12-09T09:11:15.925Z,986.74
2018-12-09T09:12:15.902Z,986.76
2018-12-09T09:13:15.882Z,986.70
2018-12-09T09:14:15.864Z,986.79
2018-12-09T09:15:15.847Z,986.82
2018-12-09T09:16:15.823Z,986.83
2018-12-09T09:17:15.806Z,986.85
2018-12-09T09:18:15.786Z,986.86
2018-12-09T09:19:15.765Z,986.84
2018-12-09T09:20:15.748Z,986.88
2018-12-09T09:21:15.727Z,986.86
2018-12-09T09:22:15.706Z,986.89
2018-12-09T09:23:15.687Z,986.88
2018-12-09T09:24:15.668Z,986.94
2018-12-09T09:25:15.647Z,986.94
2018-12-09T09:26:15.625Z,986.98
2018-12-09T09:27:15.611Z,987.03
2018-12-09T09:28:15.593Z,987.06
2018-12-09T09:29:15.570Z,987.01
2018-12-09T09:30:15.556Z,987.02
2018-12-09T09:31:15.533Z,987.06
2018-12-09T09:32:15.521Z,987.07
2018-12-09T09:33:15.496Z,987.15
2018-12-09T09:34:15.473Z,987.08
2018-12-09T09:35:15.454Z,987.16
2018-12-09T09:36:15.437Z,987.20
2018-12-09T09:37:15.418Z,987.10
2018-12-09T09:38:15.397Z,987.18
2018-12-09T09:39:15.375Z,987.16
2018-12-09T09:40:15.352Z,987.10
2018-12-09T09:41:15.339Z,987.13
2018-12-09T09:42:15.318Z,987.12
2018-12-09T09:43:15.295Z,987.08
2018-12-09T09:44:15.280Z,987.15
2018-12-09T09:45:15.264Z,987.12
2018-12-09T09:46:15.237Z,987.20
2018-12-09T09:47:15.225Z,987.22
2018-12-09T09:48:15.205Z,987.23
2018-12-09T09:49:15.188Z,987.22
2018-12-09T09:50:15.171Z,987.25
2018-12-09T09:51:15.152Z,987.17
2018-12-09T09:52:15.130Z,987.21
2018-12-09T09:53:15.111Z,987.22
2018-12-09T09:54:15.100Z,987.30
2018-12-09T09:55:15.068Z,987.25
2018-12-09T09:56:15.050Z,987.23
2018-12-09T09:57:15.031Z,987.28
2018-12-09T09:58:15.010Z,987.25
2018-12-09T09:59:14.993Z,987.27
2018-12-09T10:00:14.973Z,987.36
2018-12-09T10:01:14.957Z,987.38
2018-12-09T10:02:14.936Z,987.34
2018-12-09T10:03:14.917Z,987.32
2018-12-09T10:04:14.904Z,987.37
2018-12-09T10:05:14.875Z,987.35
2018-12-09T10:06:14.858Z,987.37
2018-12-09T10:07:14.837Z,987.34
2018-12-09T10:08:14.824Z,987.39
2018-12-09T10:09:14.799Z,987.40
2018-12-09T10:10:14.784Z,987.43
2018-12-09T10:11:14.760Z,987.48
2018-12-09T10:12:14.741Z,987.42
2018-12-09T10:13:14.721Z,987.44
2018-12-09T10:14:14.701Z,987.44
2018-12-09T10:15:14.683Z,987.52
2018-12-09T10:16:14.666Z,987.54
2018-12-09T10:17:14.650Z,987.55
2018-12-09T10:18:14.628Z,987.63
2018-12-09T10:19:14.609Z,987.63
2018-12-09T10:20:14.590Z,987.63
2018-12-09T10:21:14.568Z,987.63
2018-12-09T10:22:14.550Z,987.64
2018-12-09T10:23:16.029Z,987.60
2018-12-09T10:24:14.512Z,987.67
2018-12-09T10:25:14.494Z,987.69
2018-12-09T10:26:14.477Z,987.65
2018-12-09T10:27:14.450Z,987.64
2018-12-09T10:28:14.434Z,987.61
2018-12-09T10:29:14.413Z,987.68
2018-12-09T10:30:14.391Z,987.75
2018-12-09T10:31:14.375Z,987.73
2018-12-09T10:32:14.358Z,987.75
2018-12-09T10:33:14.343Z,987.79
2018-12-09T10:34:14.318Z,987.81
2018-12-09T10:35:14.299Z,987.83
2018-12-09T10:36:14.283Z,987.80
2018-12-09T10:37:14.268Z,987.77
2018-12-09T10:38:14.242Z,987.79
2018-12-09T10:39:14.223Z,987.82
2018-12-09T10:40:14.204Z,987.84
2018-12-09T10:41:14.187Z,987.85
2018-12-09T10:42:14.169Z,987.88
2018-12-09T10:43:14.148Z,987.93
2018-12-09T10:44:14.135Z,987.88
2018-12-09T10:45:14.108Z,987.89
2018-12-09T10:46:14.088Z,987.86
2018-12-09T10:47:14.070Z,987.96
2018-12-09T10:48:14.051Z,987.97
2018-12-09T10:49:14.032Z,987.94
2018-12-09T10:50:14.018Z,987.96
2018-12-09T10:51:13.992Z,987.95
2018-12-09T10:52:13.976Z,987.99
2018-12-09T10:53:13.959Z,988.00
2018-12-09T10:54:13.938Z,988.01
2018-12-09T10:55:13.918Z,988.04
2018-12-09T10:56:13.900Z,988.10
2018-12-09T10:57:13.882Z,988.03
2018-12-09T10:58:13.859Z,988.05
2018-12-09T10:59:13.844Z,988.06
2018-12-09T11:00:13.824Z,988.09
2018-12-09T11:01:13.803Z,988.07
2018-12-09T11:02:13.783Z,988.06
2018-12-09T11:03:13.768Z,988.04
2018-12-09T11:04:13.745Z,988.10
2018-12-09T11:05:13.724Z,987.97
2018-12-09T11:06:13.711Z,988.05
2018-12-09T11:07:13.686Z,988.12
2018-12-09T11:08:13.669Z,988.10
2018-12-09T11:09:13.649Z,988.05
2018-12-09T11:10:13.630Z,988.05
2018-12-09T11:11:13.611Z,988.05
2018-12-09T11:12:13.590Z,988.10
2018-12-09T11:13:13.576Z,988.09
2018-12-09T11:14:13.556Z,988.13
2018-12-09T11:15:13.535Z,988.18
2018-12-09T11:16:13.517Z,988.11
2018-12-09T11:17:13.504Z,988.22
2018-12-09T11:18:13.586Z,988.28
2018-12-09T11:19:13.459Z,988.26
2018-12-09T11:20:13.441Z,988.30
2018-12-09T11:21:13.421Z,988.35
2018-12-09T11:22:13.402Z,988.30
2018-12-09T11:23:13.383Z,988.28
2018-12-09T11:24:13.365Z,988.27
2018-12-09T11:25:13.348Z,988.27
2018-12-09T11:26:13.328Z,988.31
2018-12-09T11:27:13.311Z,988.32
2018-12-09T11:28:13.287Z,988.30
2018-12-09T11:29:13.271Z,988.34
2018-12-09T11:30:13.250Z,988.36
2018-12-09T11:31:13.234Z,988.37
2018-12-09T11:32:13.212Z,988.32
2018-12-09T11:33:13.195Z,988.31
2018-12-09T11:34:13.177Z,988.44
2018-12-09T11:35:13.158Z,988.40
2018-12-09T11:36:13.144Z,988.41
2018-12-09T11:37:13.122Z,988.39
2018-12-09T11:38:13.112Z,988.42
2018-12-09T11:39:13.082Z,988.44
2018-12-09T11:40:13.064Z,988.44
2018-12-09T11:41:13.044Z,988.43
2018-12-09T11:42:13.030Z,988.44
2018-12-09T11:43:13.004Z,988.45
2018-12-09T11:44:12.987Z,988.45
2018-12-09T11:45:12.978Z,988.47
2018-12-09T11:46:12.957Z,988.45
2018-12-09T11:47:12.929Z,988.53
2018-12-09T11:48:12.912Z,988.49
2018-12-09T11:49:12.896Z,988.55
2018-12-09T11:50:12.882Z,988.56
2018-12-09T11:51:12.853Z,988.56
2018-12-09T11:52:12.840Z,988.57
2018-12-09T11:53:12.819Z,988.58
2018-12-09T11:54:12.799Z,988.64
2018-12-09T11:55:12.778Z,988.64
2018-12-09T11:56:12.759Z,988.66
2018-12-09T11:57:12.742Z,988.62
2018-12-09T11:58:12.721Z,988.62
2018-12-09T11:59:12.703Z,988.66
2018-12-09T12:00:12.693Z,988.67
2018-12-09T12:01:12.666Z,988.71
2018-12-09T12:02:19.868Z,988.71
2018-12-09T12:03:12.628Z,988.72
2018-12-09T12:04:12.612Z,988.70
2018-12-09T12:05:12.595Z,988.63
2018-12-09T12:06:12.570Z,988.70
2018-12-09T12:07:12.551Z,988.72
2018-12-09T12:08:12.536Z,988.71
2018-12-09T12:09:12.519Z,988.76
2018-12-09T12:10:12.495Z,988.81
2018-12-09T12:11:12.475Z,988.84
2018-12-09T12:12:12.456Z,988.79
2018-12-09T12:13:12.439Z,988.79
2018-12-09T12:14:12.422Z,988.74
2018-12-09T12:15:12.403Z,988.76
2018-12-09T12:16:12.381Z,988.85
2018-12-09T12:17:12.363Z,988.79
2018-12-09T12:18:12.343Z,988.92
2018-12-09T12:19:12.334Z,988.90
2018-12-09T12:20:12.311Z,988.92
2018-12-09T12:21:12.287Z,988.91
2018-12-09T12:22:12.270Z,988.92
2018-12-09T12:23:12.251Z,988.91
2018-12-09T12:24:12.235Z,988.88
2018-12-09T12:25:12.216Z,988.87
2018-12-09T12:26:12.197Z,988.96
2018-12-09T12:27:12.175Z,988.97
2018-12-09T12:28:12.159Z,988.98